createdAt,value
2022-10-18T00:01:23.395Z,93.29
2022-10-18T00:03:53.414Z,93.52
2022-10-18T00:06:23.478Z,93.56
2022-10-18T00:08:53.393Z,93.66
2022-10-18T00:11:23.776Z,93.84
2022-10-18T00:13:55.451Z,93.98
2022-10-18T00:16:23.445Z,93.98
2022-10-18T00:18:53.772Z,93.74
2022-10-18T00:21:24.969Z,93.88
2022-10-18T00:23:53.723Z,93.84
2022-10-18T00:26:26.088Z,93.89
2022-10-18T00:28:55.896Z,93.90
2022-10-18T00:31:26.168Z,93.92
2022-10-18T00:33:56.302Z,94.00
2022-10-18T00:36:24.468Z,93.86
2022-10-18T00:38:53.444Z,93.76
2022-10-18T00:41:26.315Z,93.68
2022-10-18T00:43:57.689Z,93.47
2022-10-18T00:46:25.068Z,93.31
2022-10-18T00:51:28.009Z,93.02
2022-10-18T00:53:53.812Z,92.89
2022-10-18T00:56:24.118Z,92.82
2022-10-18T00:58:53.623Z,92.66
2022-10-18T01:01:27.513Z,92.86
2022-10-18T01:03:54.941Z,92.85
2022-10-18T01:06:25.083Z,93.09
2022-10-18T01:09:08.306Z,93.11
2022-10-18T01:14:04.996Z,93.18
2022-10-18T01:16:29.841Z,93.16
2022-10-18T01:18:57.724Z,93.07
2022-10-18T01:21:35.020Z,93.11
2022-10-18T01:24:13.246Z,92.98
2022-10-18T01:26:37.427Z,92.73
2022-10-18T01:29:03.081Z,92.97
2022-10-18T01:33:58.698Z,93.04
2022-10-18T01:36:28.689Z,92.94
2022-10-18T01:38:57.111Z,92.77
2022-10-18T01:43:57.494Z,92.57
2022-10-18T01:46:25.344Z,92.72
2022-10-18T01:48:54.324Z,92.48
2022-10-18T01:53:54.016Z,92.46
2022-10-18T01:56:31.592Z,92.44
2022-10-18T01:59:02.293Z,92.45
2022-10-18T02:01:32.549Z,92.42
2022-10-18T02:03:58.370Z,92.40
2022-10-18T02:06:28.816Z,92.31
2022-10-18T02:09:02.014Z,92.27
2022-10-18T02:11:25.485Z,92.32
2022-10-18T02:13:58.481Z,92.33
2022-10-18T02:16:28.806Z,92.19
2022-10-18T02:18:57.350Z,92.21
2022-10-18T02:21:24.786Z,92.13
2022-10-18T02:23:54.945Z,92.05
2022-10-18T02:26:23.887Z,91.93
2022-10-18T02:28:54.325Z,91.87
2022-10-18T02:31:29.810Z,91.84
2022-10-18T02:33:57.233Z,91.80
2022-10-18T02:36:27.891Z,91.94
2022-10-18T02:38:58.618Z,91.97
2022-10-18T02:41:24.875Z,91.91
2022-10-18T02:43:53.468Z,91.82
2022-10-18T02:46:24.058Z,91.75
2022-10-18T02:48:53.429Z,91.62
2022-10-18T02:51:24.223Z,91.75
2022-10-18T02:53:53.443Z,91.89
2022-10-18T02:56:23.462Z,91.80
2022-10-18T02:58:53.756Z,91.62
2022-10-18T03:01:23.620Z,91.56
2022-10-18T03:03:53.544Z,91.47
2022-10-18T03:06:23.498Z,91.38
2022-10-18T03:08:53.438Z,91.26
2022-10-18T03:11:23.783Z,91.19
2022-10-18T03:13:53.417Z,91.10
2022-10-18T03:16:23.740Z,91.17
2022-10-18T03:18:53.549Z,91.07
2022-10-18T03:21:23.442Z,91.04
2022-10-18T03:23:53.575Z,91.01
2022-10-18T03:26:23.516Z,91.01
2022-10-18T03:28:53.580Z,90.85
2022-10-18T03:31:23.569Z,90.79
2022-10-18T03:33:53.649Z,90.98
2022-10-18T03:36:23.694Z,91.06
2022-10-18T03:38:53.443Z,91.06
2022-10-18T03:41:23.563Z,90.86
2022-10-18T03:43:53.530Z,90.81
2022-10-18T03:46:23.708Z,90.74
2022-10-18T03:48:53.654Z,90.68
2022-10-18T03:51:23.558Z,90.73
2022-10-18T03:53:53.453Z,90.83
2022-10-18T03:56:23.690Z,90.77
2022-10-18T03:58:53.542Z,90.71
2022-10-18T04:01:23.587Z,90.68
2022-10-18T04:03:53.574Z,90.77
2022-10-18T04:06:23.529Z,90.87
2022-10-18T04:08:54.615Z,90.69
2022-10-18T04:11:23.461Z,90.64
2022-10-18T04:13:53.631Z,90.60
2022-10-18T04:16:24.077Z,90.54
2022-10-18T04:18:53.661Z,90.51
2022-10-18T04:21:23.730Z,90.51
2022-10-18T04:23:53.518Z,90.56
2022-10-18T04:26:23.659Z,90.53
2022-10-18T04:28:53.606Z,90.48
2022-10-18T04:31:23.517Z,90.41
2022-10-18T04:33:53.983Z,90.60
2022-10-18T04:36:23.510Z,90.60
2022-10-18T04:38:53.650Z,90.54
2022-10-18T04:41:23.764Z,90.49
2022-10-18T04:43:53.558Z,90.42
2022-10-18T04:46:23.526Z,90.37
2022-10-18T04:48:53.478Z,90.28
2022-10-18T04:51:23.721Z,90.22
2022-10-18T04:53:53.552Z,90.21
2022-10-18T04:56:23.630Z,90.06
2022-10-18T04:58:53.581Z,90.30
2022-10-18T05:01:23.505Z,90.37
2022-10-18T05:03:54.248Z,90.31
2022-10-18T05:06:23.484Z,90.17
2022-10-18T05:08:53.680Z,90.09
2022-10-18T05:11:23.632Z,90.02
2022-10-18T05:13:53.486Z,89.90
2022-10-18T05:16:23.832Z,89.97
2022-10-18T05:18:53.856Z,90.23
2022-10-18T05:21:23.632Z,90.34
2022-10-18T05:23:54.305Z,90.39
2022-10-18T05:26:23.623Z,90.26
2022-10-18T05:28:53.650Z,90.45
2022-10-18T05:31:23.787Z,90.62
2022-10-18T05:33:53.564Z,90.62
2022-10-18T05:36:25.115Z,90.69
2022-10-18T05:43:53.833Z,90.71
2022-10-18T05:46:23.793Z,90.61
2022-10-18T05:48:53.476Z,90.64
2022-10-18T05:51:23.984Z,90.75
2022-10-18T05:53:53.880Z,90.73
2022-10-18T05:56:23.978Z,90.60
2022-10-18T05:58:53.950Z,90.47
2022-10-18T06:01:23.553Z,90.35
2022-10-18T06:03:53.547Z,90.88
2022-10-18T06:06:23.775Z,91.44
2022-10-18T06:08:53.635Z,91.45
2022-10-18T06:11:24.197Z,91.57
2022-10-18T06:18:55.319Z,92.43
2022-10-18T06:21:24.851Z,92.27
2022-10-18T06:23:55.174Z,91.97
2022-10-18T06:26:24.334Z,91.89
2022-10-18T06:28:53.685Z,91.67
2022-10-18T06:31:23.727Z,91.54
2022-10-18T06:33:56.167Z,91.49
2022-10-18T06:36:24.148Z,91.39
2022-10-18T06:38:53.612Z,91.33
2022-10-18T06:41:23.809Z,91.32
2022-10-18T06:43:56.582Z,91.30
2022-10-18T06:51:23.740Z,91.46
2022-10-18T06:54:13.085Z,91.60
2022-10-18T06:56:23.621Z,91.65
2022-10-18T07:01:23.626Z,91.34
2022-10-18T07:06:24.533Z,91.12
2022-10-18T07:08:53.745Z,91.29
2022-10-18T07:11:26.015Z,91.30
2022-10-18T07:13:59.793Z,91.30
2022-10-18T07:16:23.526Z,91.33
2022-10-18T07:18:54.069Z,91.39
2022-10-18T07:21:25.507Z,91.65
2022-10-18T07:23:53.740Z,92.18
2022-10-18T07:26:26.292Z,92.71
2022-10-18T07:28:56.982Z,94.29
2022-10-18T07:31:24.474Z,95.76
2022-10-18T07:33:53.807Z,96.73
2022-10-18T07:36:24.665Z,97.17
2022-10-18T07:38:53.565Z,98.05
2022-10-18T07:41:27.693Z,99.67
2022-10-18T07:43:53.852Z,100.00
2022-10-18T07:46:23.855Z,100.00
2022-10-18T07:48:54.709Z,100.00
2022-10-18T07:51:23.564Z,100.00
2022-10-18T07:53:53.757Z,100.00
2022-10-18T07:56:24.477Z,100.00
2022-10-18T07:58:55.282Z,100.00
2022-10-18T08:01:24.735Z,100.00
2022-10-18T08:03:53.729Z,100.00
2022-10-18T08:06:23.704Z,100.00
2022-10-18T08:08:53.811Z,100.00
2022-10-18T08:11:24.877Z,100.00
2022-10-18T08:13:53.812Z,100.00
2022-10-18T08:16:25.608Z,100.00
2022-10-18T08:18:56.192Z,99.47
2022-10-18T08:21:24.210Z,96.92
2022-10-18T08:23:54.106Z,94.80
2022-10-18T08:26:23.923Z,93.14
2022-10-18T08:29:03.643Z,91.46
2022-10-18T08:31:23.795Z,90.48
2022-10-18T08:33:54.252Z,89.64
2022-10-18T08:36:24.146Z,89.01
2022-10-18T08:38:53.718Z,88.28
2022-10-18T08:41:34.495Z,87.65
2022-10-18T08:44:01.112Z,87.25
2022-10-18T08:46:24.416Z,87.01
2022-10-18T08:48:55.662Z,86.93
2022-10-18T08:51:28.759Z,86.79
2022-10-18T08:54:02.803Z,86.75
2022-10-18T08:56:25.071Z,86.74
2022-10-18T08:58:53.779Z,86.86
2022-10-18T09:01:37.579Z,86.96
2022-10-18T09:04:07.176Z,86.99
2022-10-18T09:06:30.636Z,87.38
2022-10-18T09:09:05.611Z,87.26
2022-10-18T09:16:30.211Z,87.57
2022-10-18T09:19:05.192Z,87.72
2022-10-18T09:21:36.013Z,87.88
2022-10-18T09:24:04.469Z,88.05
2022-10-18T09:26:24.756Z,88.12
2022-10-18T09:29:07.832Z,88.09
2022-10-18T09:31:33.423Z,88.08
2022-10-18T09:33:58.565Z,88.40
2022-10-18T09:36:32.629Z,88.25
2022-10-18T09:39:00.389Z,88.22
2022-10-18T09:41:25.888Z,88.32
2022-10-18T09:43:57.925Z,88.38
2022-10-18T09:46:29.394Z,88.23
2022-10-18T09:48:59.398Z,88.59
2022-10-18T09:51:28.000Z,88.38
2022-10-18T09:54:04.939Z,88.86
2022-10-18T09:56:28.946Z,88.79
2022-10-18T09:58:53.629Z,88.84
2022-10-18T10:01:25.546Z,88.71
2022-10-18T10:03:54.011Z,88.19
2022-10-18T10:06:25.982Z,87.80
2022-10-18T10:08:58.539Z,87.21
2022-10-18T10:11:31.630Z,86.90
2022-10-18T10:13:57.119Z,86.96
2022-10-18T10:16:26.110Z,86.91
2022-10-18T10:18:53.843Z,87.14
2022-10-18T10:21:23.973Z,87.28
2022-10-18T10:26:27.322Z,87.12
2022-10-18T10:28:54.195Z,86.86
2022-10-18T10:31:27.489Z,85.45
2022-10-18T10:34:03.810Z,84.30
2022-10-18T10:36:23.911Z,87.09
2022-10-18T10:39:05.372Z,88.54
2022-10-18T10:41:23.868Z,81.64
2022-10-18T10:43:53.697Z,85.02
2022-10-18T10:46:33.578Z,84.68
2022-10-18T10:49:09.626Z,82.27
2022-10-18T10:51:29.473Z,84.47
2022-10-18T10:53:59.158Z,84.66
2022-10-18T10:56:26.447Z,82.77
2022-10-18T10:58:55.285Z,83.92
2022-10-18T11:01:29.713Z,82.34
2022-10-18T11:03:57.663Z,86.11
2022-10-18T11:06:39.134Z,86.12
2022-10-18T11:08:56.575Z,76.45
2022-10-18T11:11:30.805Z,77.31
2022-10-18T11:14:21.164Z,87.29
2022-10-18T11:16:32.092Z,85.91
2022-10-18T11:18:56.599Z,84.05
2022-10-18T11:21:27.338Z,82.08
2022-10-18T11:23:54.489Z,79.45
2022-10-18T11:26:42.160Z,81.82
2022-10-18T11:29:08.293Z,81.45
2022-10-18T11:31:29.632Z,79.61
2022-10-18T11:34:12.571Z,79.64
2022-10-18T11:36:30.588Z,72.25
2022-10-18T11:38:59.971Z,76.18
2022-10-18T11:41:30.700Z,73.95
2022-10-18T11:44:02.743Z,75.15
2022-10-18T11:46:36.881Z,73.84
2022-10-18T11:49:07.729Z,74.11
2022-10-18T11:51:44.736Z,75.84
2022-10-18T11:54:05.996Z,77.18
2022-10-18T11:56:31.314Z,76.40
2022-10-18T11:59:10.251Z,74.30
2022-10-18T12:01:32.456Z,74.07
2022-10-18T12:04:01.166Z,72.28
2022-10-18T12:06:29.694Z,70.79
2022-10-18T12:08:58.515Z,69.81
2022-10-18T12:11:27.396Z,69.11
2022-10-18T12:13:58.026Z,68.56
2022-10-18T12:16:49.447Z,68.00
2022-10-18T12:18:56.973Z,67.96
2022-10-18T12:21:28.315Z,66.54
2022-10-18T12:23:57.183Z,67.21
2022-10-18T12:26:25.990Z,66.71
2022-10-18T12:29:05.289Z,68.36
2022-10-18T12:31:27.560Z,67.03
2022-10-18T12:33:59.009Z,65.88
2022-10-18T12:36:40.656Z,62.50
2022-10-18T12:38:58.732Z,66.67
2022-10-18T12:41:25.992Z,64.49
2022-10-18T12:44:00.067Z,64.40
2022-10-18T12:46:24.191Z,66.94
2022-10-18T12:49:02.764Z,63.96
2022-10-18T12:51:24.097Z,64.17
2022-10-18T12:54:06.150Z,63.76
2022-10-18T12:56:36.947Z,63.35
2022-10-18T12:59:13.655Z,62.67
2022-10-18T13:01:24.367Z,63.46
2022-10-18T13:03:55.681Z,62.24
2022-10-18T13:06:24.409Z,62.30
2022-10-18T13:09:13.483Z,63.55
2022-10-18T13:11:29.857Z,64.24
2022-10-18T13:14:09.831Z,62.57
2022-10-18T13:16:35.504Z,61.05
2022-10-18T13:18:57.759Z,60.29
2022-10-18T13:21:34.091Z,59.98
2022-10-18T13:24:11.264Z,60.34
2022-10-18T13:26:31.031Z,60.58
2022-10-18T13:29:04.104Z,59.36
2022-10-18T13:31:29.837Z,61.15
2022-10-18T13:33:53.861Z,60.82
2022-10-18T13:36:25.151Z,59.86
2022-10-18T13:39:05.004Z,60.16
2022-10-18T13:41:25.915Z,60.26
2022-10-18T13:44:07.767Z,60.85
2022-10-18T13:46:35.399Z,60.90
2022-10-18T13:48:58.753Z,61.22
2022-10-18T13:51:34.956Z,56.31
2022-10-18T13:54:01.656Z,60.54
2022-10-18T13:56:37.719Z,59.20
2022-10-18T13:59:15.244Z,60.21
2022-10-18T14:01:35.041Z,58.56
2022-10-18T14:04:13.649Z,58.41
2022-10-18T14:06:26.634Z,58.42
2022-10-18T14:09:03.376Z,57.99
2022-10-18T14:11:32.786Z,57.93
2022-10-18T14:13:57.809Z,58.20
2022-10-18T14:16:31.172Z,58.00
2022-10-18T14:19:06.545Z,58.66
2022-10-18T14:21:31.609Z,58.99
2022-10-18T14:23:54.118Z,58.86
2022-10-18T14:26:27.711Z,59.19
2022-10-18T14:29:03.275Z,58.59
2022-10-18T14:31:23.857Z,59.51
2022-10-18T14:33:57.924Z,59.96
2022-10-18T14:36:26.129Z,60.27
2022-10-18T14:38:55.997Z,61.04
2022-10-18T14:41:25.344Z,60.87
2022-10-18T14:44:11.419Z,60.78
2022-10-18T14:46:28.016Z,60.94
2022-10-18T14:48:55.444Z,60.97
2022-10-18T14:51:25.158Z,61.19
2022-10-18T14:53:56.407Z,61.32
2022-10-18T14:56:28.116Z,61.54
2022-10-18T14:58:55.798Z,61.77
2022-10-18T15:01:26.797Z,61.70
2022-10-18T15:03:57.165Z,61.63
2022-10-18T15:06:24.601Z,62.11
2022-10-18T15:08:57.145Z,62.27
2022-10-18T15:11:24.880Z,62.35
2022-10-18T15:13:56.441Z,62.56
2022-10-18T15:16:27.238Z,62.50
2022-10-18T15:19:04.075Z,62.69
2022-10-18T15:21:24.730Z,63.08
2022-10-18T15:23:54.652Z,63.42
2022-10-18T15:26:28.559Z,63.29
2022-10-18T15:29:00.498Z,63.41
2022-10-18T15:31:26.222Z,63.61
2022-10-18T15:34:07.738Z,63.86
2022-10-18T15:36:28.222Z,63.98
2022-10-18T15:39:04.090Z,64.20
2022-10-18T15:41:35.648Z,64.21
2022-10-18T15:44:09.048Z,64.27
2022-10-18T15:46:31.719Z,64.32
2022-10-18T15:49:08.944Z,64.58
2022-10-18T15:56:29.067Z,64.43
2022-10-18T15:58:56.005Z,64.48
2022-10-18T16:01:32.825Z,64.29
2022-10-18T16:06:23.760Z,64.34
2022-10-18T16:08:53.940Z,64.52
2022-10-18T16:11:25.429Z,64.69
2022-10-18T16:13:56.497Z,64.79
2022-10-18T16:16:26.456Z,64.92
2022-10-18T16:18:54.545Z,65.07
2022-10-18T16:21:26.970Z,65.19
2022-10-18T16:23:54.126Z,65.30
2022-10-18T16:26:25.878Z,65.47
2022-10-18T16:28:54.849Z,65.64
2022-10-18T16:31:25.983Z,65.76
2022-10-18T16:33:55.028Z,65.91
2022-10-18T16:36:25.190Z,65.99
2022-10-18T16:38:54.501Z,66.11
2022-10-18T16:41:24.242Z,66.14
2022-10-18T16:43:53.853Z,66.26
2022-10-18T16:46:26.487Z,66.27
2022-10-18T16:48:55.161Z,66.39
2022-10-18T16:51:24.374Z,66.45
2022-10-18T16:53:54.610Z,66.67
2022-10-18T16:56:27.026Z,66.69
2022-10-18T16:58:53.944Z,66.76
2022-10-18T17:01:24.712Z,66.80
2022-10-18T17:03:54.361Z,66.86
2022-10-18T17:06:26.353Z,66.94
2022-10-18T17:08:55.394Z,67.03
2022-10-18T17:11:26.719Z,67.12
2022-10-18T17:18:54.746Z,67.35
2022-10-18T17:21:25.460Z,67.42
2022-10-18T17:23:54.287Z,67.48
2022-10-18T17:26:28.823Z,67.56
2022-10-18T17:28:56.695Z,67.59
2022-10-18T17:31:23.881Z,67.71
2022-10-18T17:36:24.203Z,67.79
2022-10-18T17:38:54.869Z,67.81
2022-10-18T17:41:24.086Z,67.87
2022-10-18T17:43:54.069Z,67.94
2022-10-18T17:46:23.902Z,67.99
2022-10-18T17:48:54.391Z,68.10
2022-10-18T17:51:23.814Z,68.20
2022-10-18T17:53:53.957Z,68.23
2022-10-18T17:58:53.839Z,68.27
2022-10-18T18:01:24.384Z,68.32
2022-10-18T18:03:55.742Z,68.39
2022-10-18T18:06:29.905Z,68.46
2022-10-18T18:08:53.837Z,68.41
2022-10-18T18:11:24.544Z,68.34
2022-10-18T18:13:54.539Z,68.33
2022-10-18T18:16:25.995Z,68.38
2022-10-18T18:18:55.573Z,68.49
2022-10-18T18:21:25.596Z,68.51
2022-10-18T18:23:54.702Z,68.62
2022-10-18T18:26:24.670Z,68.78
2022-10-18T18:28:53.958Z,68.95
2022-10-18T18:31:24.831Z,69.00
2022-10-18T18:33:56.256Z,69.04
2022-10-18T18:36:28.037Z,69.07
2022-10-18T18:46:25.706Z,69.12
2022-10-18T18:48:56.164Z,69.17
2022-10-18T18:51:24.560Z,69.21
2022-10-18T19:01:26.640Z,69.41
2022-10-18T19:03:55.944Z,69.41
2022-10-18T19:06:25.859Z,69.45
2022-10-18T19:11:23.853Z,69.47
2022-10-18T19:13:54.481Z,69.46
2022-10-18T19:16:26.390Z,69.39
2022-10-18T19:18:57.846Z,69.39
2022-10-18T19:21:26.776Z,69.38
2022-10-18T19:23:55.620Z,69.41
2022-10-18T19:26:28.661Z,69.47
2022-10-18T19:28:54.494Z,69.53
2022-10-18T19:31:23.833Z,69.63
2022-10-18T19:33:59.009Z,69.74
2022-10-18T19:36:23.963Z,69.85
2022-10-18T19:43:54.722Z,70.24
2022-10-18T19:48:54.221Z,70.34
2022-10-18T19:51:27.950Z,70.36
2022-10-18T19:53:56.791Z,70.48
2022-10-18T19:58:54.883Z,70.64
2022-10-18T20:01:25.392Z,70.79
2022-10-18T20:06:24.164Z,70.93
2022-10-18T20:08:55.220Z,71.24
2022-10-18T20:11:27.490Z,71.66
2022-10-18T20:13:55.093Z,71.71
2022-10-18T20:16:28.328Z,71.78
2022-10-18T20:18:54.573Z,72.36
2022-10-18T20:23:54.560Z,72.24
2022-10-18T20:28:57.126Z,72.34
2022-10-18T20:33:55.483Z,72.43
2022-10-18T20:36:25.518Z,72.45
2022-10-18T20:38:54.381Z,72.51
2022-10-18T20:41:26.112Z,72.48
2022-10-18T20:43:55.815Z,72.53
2022-10-18T20:46:25.215Z,72.57
2022-10-18T20:48:54.502Z,72.57
2022-10-18T20:51:24.450Z,72.55
2022-10-18T20:53:54.191Z,72.47
2022-10-18T20:56:26.308Z,72.47
2022-10-18T20:58:55.858Z,72.49
2022-10-18T21:01:26.288Z,72.53
2022-10-18T21:03:55.840Z,72.52
2022-10-18T21:06:25.740Z,72.50
2022-10-18T21:08:54.936Z,72.51
2022-10-18T21:11:25.481Z,72.61
2022-10-18T21:13:56.516Z,72.64
2022-10-18T21:16:24.866Z,72.82
2022-10-18T21:18:54.187Z,72.84
2022-10-18T21:21:24.429Z,72.92
2022-10-18T21:23:54.155Z,73.02
2022-10-18T21:26:27.667Z,73.05
2022-10-18T21:28:57.659Z,72.95
2022-10-18T21:31:25.763Z,72.94
2022-10-18T21:33:56.098Z,73.03
2022-10-18T21:36:25.419Z,73.04
2022-10-18T21:38:54.075Z,73.00
2022-10-18T21:41:24.050Z,72.97
2022-10-18T21:43:54.313Z,73.00
2022-10-18T21:46:26.078Z,73.02
2022-10-18T21:48:55.559Z,73.11
2022-10-18T21:51:26.243Z,73.17
2022-10-18T21:53:55.719Z,73.19
2022-10-18T21:56:26.179Z,73.32
2022-10-18T21:58:54.591Z,73.46
2022-10-18T22:01:26.245Z,73.39
2022-10-18T22:03:55.787Z,73.40
2022-10-18T22:06:25.768Z,73.42
2022-10-18T22:08:55.368Z,73.44
2022-10-18T22:11:26.120Z,73.49
2022-10-18T22:13:54.642Z,73.53
2022-10-18T22:16:24.698Z,73.82
2022-10-18T22:18:57.342Z,73.84
2022-10-18T22:21:24.239Z,73.82
2022-10-18T22:23:56.670Z,73.76
2022-10-18T22:26:26.578Z,73.68
2022-10-18T22:28:55.965Z,73.94
2022-10-18T22:31:26.640Z,73.99
2022-10-18T22:33:55.345Z,73.95
2022-10-18T22:36:24.806Z,74.02
2022-10-18T22:38:54.525Z,74.37
2022-10-18T22:41:24.501Z,74.73
2022-10-18T22:43:55.549Z,74.97
2022-10-18T22:53:54.045Z,75.29
2022-10-18T22:56:24.368Z,75.31
2022-10-18T23:01:24.351Z,75.25
2022-10-18T23:06:26.142Z,75.27
2022-10-18T23:11:25.118Z,75.23
2022-10-18T23:16:24.354Z,75.05
2022-10-18T23:18:55.695Z,75.04
2022-10-18T23:21:27.203Z,75.07
2022-10-18T23:26:26.432Z,75.17
2022-10-18T23:28:54.771Z,75.04
2022-10-18T23:31:26.988Z,75.00
2022-10-18T23:33:55.537Z,74.98
2022-10-18T23:36:25.100Z,74.89
2022-10-18T23:38:54.557Z,74.95
2022-10-18T23:41:25.098Z,74.95
2022-10-18T23:43:54.844Z,74.97
2022-10-18T23:46:24.307Z,74.97
2022-10-18T23:48:54.192Z,74.98
2022-10-18T23:51:24.098Z,75.28
2022-10-18T23:53:53.994Z,75.42
2022-10-18T23:56:24.440Z,75.36
2022-10-18T23:58:55.303Z,75.60
